createdAt,value
2017-07-21T00:00:36.048Z,87.70
2017-07-21T00:03:03.489Z,87.70
2017-07-21T00:05:30.914Z,87.90
2017-07-21T00:07:58.340Z,88.40
2017-07-21T00:10:26.539Z,89.10
2017-07-21T00:12:53.956Z,89.00
2017-07-21T00:15:21.423Z,90.00
2017-07-21T00:17:48.822Z,89.10
2017-07-21T00:20:16.301Z,89.20
2017-07-21T00:22:43.720Z,89.10
2017-07-21T00:25:11.141Z,89.20
2017-07-21T00:27:38.564Z,89.10
2017-07-21T00:30:05.998Z,88.90
2017-07-21T00:32:33.409Z,88.80
2017-07-21T00:35:01.607Z,88.90
2017-07-21T00:37:29.038Z,88.80
2017-07-21T00:39:56.455Z,88.90
2017-07-21T00:42:23.892Z,89.10
2017-07-21T00:44:51.301Z,89.30
2017-07-21T00:47:18.720Z,89.20
2017-07-21T00:49:46.162Z,89.50
2017-07-21T00:52:13.584Z,89.40
2017-07-21T00:54:41.776Z,89.10
2017-07-21T00:57:09.204Z,89.10
2017-07-21T00:59:37.397Z,89.10
2017-07-21T01:02:04.863Z,89.10
2017-07-21T01:04:32.538Z,89.00
2017-07-21T01:06:59.962Z,89.30
2017-07-21T01:09:28.147Z,89.20
2017-07-21T01:11:55.585Z,89.10
2017-07-21T01:14:23.068Z,89.30
2017-07-21T01:16:50.491Z,89.30
2017-07-21T01:21:52.058Z,89.40
2017-07-21T01:24:19.486Z,89.20
2017-07-21T01:26:46.914Z,89.20
2017-07-21T01:29:14.341Z,89.30
2017-07-21T01:31:41.764Z,89.30
2017-07-21T01:34:09.969Z,89.70
2017-07-21T01:36:37.392Z,89.70
2017-07-21T01:39:05.580Z,90.00
2017-07-21T01:41:33.075Z,89.80
2017-07-21T01:44:00.504Z,89.90
2017-07-21T01:46:28.701Z,90.10
2017-07-21T01:48:56.148Z,90.10
2017-07-21T01:51:23.576Z,90.30
2017-07-21T01:53:51.771Z,90.30
2017-07-21T01:56:19.195Z,90.30
2017-07-21T01:58:47.398Z,90.50
2017-07-21T02:01:15.099Z,90.40
2017-07-21T02:03:42.529Z,90.50
2017-07-21T02:06:09.954Z,90.40
2017-07-21T02:08:37.383Z,90.40
2017-07-21T02:11:04.817Z,90.60
2017-07-21T02:13:32.241Z,90.70
2017-07-21T02:15:59.663Z,90.70
2017-07-21T02:18:27.860Z,91.00
2017-07-21T02:20:55.313Z,91.00
2017-07-21T02:23:22.816Z,90.90
2017-07-21T02:25:50.235Z,90.90
2017-07-21T02:28:17.666Z,91.00
2017-07-21T02:30:45.100Z,91.00
2017-07-21T02:33:12.532Z,91.00
2017-07-21T02:35:39.971Z,91.00
2017-07-21T02:38:07.381Z,91.00
2017-07-21T02:40:35.579Z,91.20
2017-07-21T02:43:02.998Z,91.20
2017-07-21T02:45:30.424Z,91.20
2017-07-21T02:47:57.842Z,91.20
2017-07-21T02:50:25.276Z,91.20
2017-07-21T02:52:53.474Z,91.30
2017-07-21T02:55:20.905Z,91.30
2017-07-21T02:57:48.333Z,91.30
2017-07-21T03:00:15.774Z,91.50
2017-07-21T03:02:43.197Z,91.40
2017-07-21T03:05:10.625Z,91.50
2017-07-21T03:07:38.049Z,91.50
2017-07-21T03:10:05.488Z,91.50
2017-07-21T03:12:32.904Z,91.50
2017-07-21T03:15:01.099Z,91.80
2017-07-21T03:17:28.525Z,91.40
2017-07-21T03:19:56.712Z,91.90
2017-07-21T03:22:24.140Z,91.50
2017-07-21T03:24:51.574Z,91.50
2017-07-21T03:27:19.007Z,91.60
2017-07-21T03:29:46.425Z,91.50
2017-07-21T03:32:14.613Z,91.80
2017-07-21T03:34:42.037Z,91.80
2017-07-21T03:37:09.472Z,91.70
2017-07-21T03:39:36.895Z,92.20
2017-07-21T03:42:04.313Z,91.80
2017-07-21T03:44:31.740Z,91.80
2017-07-21T03:46:59.168Z,91.90
2017-07-21T03:49:26.585Z,91.90
2017-07-21T03:51:54.022Z,91.90
2017-07-21T03:54:21.450Z,91.80
2017-07-21T03:56:48.876Z,91.90
2017-07-21T03:59:16.297Z,91.90
2017-07-21T04:01:43.734Z,91.70
2017-07-21T04:04:11.144Z,91.60
2017-07-21T04:06:38.590Z,91.50
2017-07-21T04:09:06.778Z,91.60
2017-07-21T04:11:34.210Z,91.60
2017-07-21T04:14:02.404Z,91.60
2017-07-21T04:16:30.602Z,91.60
2017-07-21T04:18:58.028Z,91.60
2017-07-21T04:21:26.267Z,91.50
2017-07-21T04:23:53.681Z,91.50
2017-07-21T04:26:21.105Z,91.50
2017-07-21T04:28:49.305Z,91.60
2017-07-21T04:31:16.745Z,91.60
2017-07-21T04:33:44.173Z,91.90
2017-07-21T04:36:11.621Z,91.40
2017-07-21T04:38:39.023Z,91.30
2017-07-21T04:41:06.504Z,91.30
2017-07-21T04:43:33.937Z,91.20
2017-07-21T04:46:01.364Z,91.20
2017-07-21T04:48:28.780Z,91.20
2017-07-21T04:50:56.210Z,91.20
2017-07-21T04:53:24.330Z,91.00
2017-07-21T04:55:51.737Z,91.00
2017-07-21T04:58:19.147Z,91.00
2017-07-21T05:00:46.576Z,91.00
2017-07-21T05:03:13.994Z,91.00
2017-07-21T05:05:41.420Z,90.90
2017-07-21T05:08:08.844Z,90.90
2017-07-21T05:10:36.256Z,91.00
2017-07-21T05:13:03.692Z,90.90
2017-07-21T05:15:31.906Z,90.60
2017-07-21T05:17:59.324Z,90.80
2017-07-21T05:20:27.507Z,90.90
2017-07-21T05:22:55.736Z,90.70
2017-07-21T05:25:23.184Z,90.70
2017-07-21T05:27:50.609Z,90.60
2017-07-21T05:30:18.033Z,90.60
2017-07-21T05:32:45.460Z,90.80
2017-07-21T05:35:12.886Z,90.60
2017-07-21T05:37:40.321Z,90.60
2017-07-21T05:40:08.523Z,90.50
2017-07-21T05:42:35.953Z,90.50
2017-07-21T05:45:04.206Z,90.30
2017-07-21T05:47:31.632Z,90.30
2017-07-21T05:49:59.062Z,90.30
2017-07-21T05:52:26.476Z,90.30
2017-07-21T05:54:54.678Z,90.40
2017-07-21T05:57:22.113Z,90.10
2017-07-21T05:59:50.294Z,90.10
2017-07-21T06:02:18.488Z,89.50
2017-07-21T06:04:45.914Z,89.40
2017-07-21T06:07:14.097Z,89.10
2017-07-21T06:09:42.302Z,88.80
2017-07-21T06:12:09.740Z,88.80
2017-07-21T06:14:37.185Z,88.60
2017-07-21T06:17:05.391Z,88.30
2017-07-21T06:19:32.800Z,88.30
2017-07-21T06:22:00.990Z,87.90
2017-07-21T06:24:28.412Z,87.90
2017-07-21T06:26:55.952Z,87.70
2017-07-21T06:29:23.372Z,87.30
2017-07-21T06:31:50.804Z,87.20
2017-07-21T06:34:18.996Z,87.10
2017-07-21T06:36:46.424Z,87.20
2017-07-21T06:39:13.847Z,86.30
2017-07-21T06:41:41.282Z,86.20
2017-07-21T06:44:08.719Z,85.20
2017-07-21T06:46:36.163Z,84.60
2017-07-21T06:49:04.338Z,84.00
2017-07-21T06:51:32.533Z,84.10
2017-07-21T06:53:59.949Z,84.10
2017-07-21T06:56:28.172Z,83.10
2017-07-21T06:58:55.622Z,83.10
2017-07-21T07:01:23.055Z,83.20
2017-07-21T07:03:51.252Z,82.20
2017-07-21T07:06:18.694Z,82.10
2017-07-21T07:08:46.145Z,81.70
2017-07-21T07:11:14.344Z,80.70
2017-07-21T07:13:41.756Z,80.50
2017-07-21T07:16:09.945Z,79.60
2017-07-21T07:18:37.376Z,79.60
2017-07-21T07:21:05.603Z,77.80
2017-07-21T07:23:33.025Z,77.80
2017-07-21T07:26:00.458Z,77.90
2017-07-21T07:28:27.881Z,78.00
2017-07-21T07:30:55.306Z,78.10
2017-07-21T07:33:22.728Z,77.90
2017-07-21T07:35:50.153Z,78.30
2017-07-21T07:38:17.769Z,78.50
2017-07-21T07:40:45.182Z,78.30
2017-07-21T07:43:13.365Z,77.70
2017-07-21T07:45:41.561Z,78.20
2017-07-21T07:48:08.981Z,78.20
2017-07-21T07:50:37.172Z,78.40
2017-07-21T07:53:04.606Z,78.30
2017-07-21T07:55:32.035Z,77.50
2017-07-21T07:57:59.474Z,77.20
2017-07-21T08:00:26.904Z,76.70
2017-07-21T08:02:54.329Z,76.30
2017-07-21T08:05:21.754Z,75.70
2017-07-21T08:07:49.176Z,74.10
2017-07-21T08:10:16.611Z,72.80
2017-07-21T08:12:44.042Z,73.20
2017-07-21T08:15:12.229Z,72.70
2017-07-21T08:17:39.719Z,72.70
2017-07-21T08:20:07.145Z,73.20
2017-07-21T08:22:34.574Z,71.70
2017-07-21T08:25:01.988Z,72.90
2017-07-21T08:27:29.424Z,69.80
2017-07-21T08:29:56.897Z,68.60
2017-07-21T08:32:24.330Z,67.50
2017-07-21T08:34:51.763Z,67.00
2017-07-21T08:37:19.946Z,66.90
2017-07-21T08:39:47.362Z,66.90
2017-07-21T08:42:14.797Z,65.90
2017-07-21T08:44:42.227Z,65.10
2017-07-21T08:47:09.653Z,64.30
2017-07-21T08:49:37.852Z,61.90
2017-07-21T08:52:05.290Z,61.70
2017-07-21T08:54:33.464Z,60.60
2017-07-21T08:57:00.921Z,60.50
2017-07-21T08:59:29.093Z,60.80
2017-07-21T09:01:57.418Z,62.40
2017-07-21T09:04:24.843Z,62.40
2017-07-21T09:06:52.262Z,62.60
2017-07-21T09:09:19.771Z,61.50
2017-07-21T09:11:47.208Z,62.20
2017-07-21T09:14:14.630Z,62.50
2017-07-21T09:16:42.046Z,61.70
2017-07-21T09:19:09.500Z,60.40
2017-07-21T09:21:36.931Z,60.10
2017-07-21T09:24:04.336Z,60.40
2017-07-21T09:26:31.774Z,59.90
2017-07-21T09:28:59.210Z,59.30
2017-07-21T09:31:26.634Z,59.20
2017-07-21T09:33:55.196Z,58.40
2017-07-21T09:36:22.600Z,58.30
2017-07-21T09:38:51.523Z,58.50
2017-07-21T09:41:18.980Z,58.40
2017-07-21T09:43:47.168Z,58.80
2017-07-21T09:46:14.580Z,58.70
2017-07-21T09:48:42.101Z,58.40
2017-07-21T09:51:09.530Z,58.20
2017-07-21T09:53:36.949Z,57.70
2017-07-21T09:56:04.369Z,57.00
2017-07-21T09:58:31.785Z,57.60
2017-07-21T10:00:59.982Z,57.20
2017-07-21T10:03:27.410Z,57.20
2017-07-21T10:05:55.612Z,56.10
2017-07-21T10:08:23.032Z,56.10
2017-07-21T10:10:51.263Z,56.20
2017-07-21T10:13:18.729Z,56.10
2017-07-21T10:15:46.149Z,56.40
2017-07-21T10:18:13.585Z,56.30
2017-07-21T10:20:41.842Z,56.70
2017-07-21T10:23:09.248Z,56.70
2017-07-21T10:25:36.701Z,56.40
2017-07-21T10:28:04.105Z,56.20
2017-07-21T10:30:31.529Z,55.60
2017-07-21T10:32:59.074Z,55.40
2017-07-21T10:35:26.486Z,54.80
2017-07-21T10:37:54.694Z,53.90
2017-07-21T10:40:22.137Z,53.90
2017-07-21T10:42:49.622Z,53.10
2017-07-21T10:45:17.129Z,54.00
2017-07-21T10:47:44.545Z,52.90
2017-07-21T10:50:12.008Z,52.30
2017-07-21T10:52:39.459Z,52.40
2017-07-21T10:55:06.892Z,53.10
2017-07-21T10:57:34.320Z,52.70
2017-07-21T11:00:02.497Z,52.10
2017-07-21T11:02:29.942Z,51.90
2017-07-21T11:04:58.178Z,53.10
2017-07-21T11:07:25.597Z,52.90
2017-07-21T11:09:53.024Z,53.20
2017-07-21T11:12:21.208Z,53.80
2017-07-21T11:14:48.643Z,53.80
2017-07-21T11:17:16.064Z,55.20
2017-07-21T11:19:43.492Z,55.00
2017-07-21T11:22:11.178Z,54.00
2017-07-21T11:24:38.596Z,52.00
2017-07-21T11:27:06.039Z,52.40
2017-07-21T11:29:33.450Z,51.10
2017-07-21T11:32:00.903Z,50.70
2017-07-21T11:34:28.358Z,51.10
2017-07-21T11:36:55.773Z,51.00
2017-07-21T11:39:23.194Z,50.10
2017-07-21T11:41:50.614Z,50.60
2017-07-21T11:44:18.050Z,50.60
2017-07-21T11:46:45.599Z,49.70
2017-07-21T11:49:13.819Z,49.10
2017-07-21T11:51:41.241Z,49.00
2017-07-21T11:54:08.725Z,49.70
2017-07-21T11:56:36.177Z,49.30
2017-07-21T11:59:03.613Z,48.80
2017-07-21T12:01:31.092Z,48.30
2017-07-21T12:03:58.542Z,48.00
2017-07-21T12:06:25.967Z,47.80
2017-07-21T12:08:53.385Z,48.50
2017-07-21T12:11:20.812Z,49.40
2017-07-21T12:13:48.241Z,48.70
2017-07-21T12:16:15.660Z,48.50
2017-07-21T12:18:43.853Z,46.60
2017-07-21T12:21:12.046Z,45.80
2017-07-21T12:23:39.481Z,45.90
2017-07-21T12:26:07.665Z,44.30
2017-07-21T12:28:35.113Z,44.20
2017-07-21T12:31:03.310Z,43.40
2017-07-21T12:33:30.739Z,43.30
2017-07-21T12:35:58.934Z,44.00
2017-07-21T12:38:26.343Z,43.90
2017-07-21T12:40:53.772Z,45.20
2017-07-21T12:43:21.209Z,45.90
2017-07-21T12:45:48.652Z,45.90
2017-07-21T12:48:16.118Z,47.40
2017-07-21T12:50:43.584Z,47.30
2017-07-21T12:53:11.005Z,47.90
2017-07-21T12:55:38.428Z,48.30
2017-07-21T12:58:05.866Z,48.20
2017-07-21T13:00:33.283Z,46.40
2017-07-21T13:03:00.700Z,44.50
2017-07-21T13:05:28.133Z,45.60
2017-07-21T13:07:55.576Z,45.20
2017-07-21T13:10:23.076Z,42.50
2017-07-21T13:12:51.265Z,38.70
2017-07-21T13:15:18.761Z,38.60
2017-07-21T13:17:46.193Z,36.90
2017-07-21T13:20:13.676Z,33.70
2017-07-21T13:22:41.132Z,32.90
2017-07-21T13:25:08.600Z,31.20
2017-07-21T13:27:36.009Z,29.70
2017-07-21T13:30:03.502Z,28.40
2017-07-21T13:32:30.945Z,27.60
2017-07-21T13:34:58.369Z,28.80
2017-07-21T13:37:25.874Z,29.40
2017-07-21T13:39:53.292Z,31.30
2017-07-21T13:42:20.723Z,31.90
2017-07-21T13:44:48.908Z,36.80
2017-07-21T13:47:17.123Z,38.60
2017-07-21T13:49:44.553Z,38.50
2017-07-21T13:52:11.979Z,39.00
2017-07-21T13:54:40.174Z,37.80
2017-07-21T13:57:07.597Z,37.00
2017-07-21T13:59:35.073Z,34.90
2017-07-21T14:02:02.530Z,33.20
2017-07-21T14:04:29.962Z,32.60
2017-07-21T14:06:57.381Z,31.80
2017-07-21T14:09:25.584Z,31.20
2017-07-21T14:11:53.012Z,31.10
2017-07-21T14:14:20.448Z,30.00
2017-07-21T14:16:47.874Z,28.30
2017-07-21T14:19:15.316Z,27.70
2017-07-21T14:21:42.740Z,27.40
2017-07-21T14:24:10.964Z,26.20
2017-07-21T14:26:38.396Z,26.10
2017-07-21T14:29:05.826Z,25.70
2017-07-21T14:31:34.150Z,26.40
2017-07-21T14:34:01.601Z,26.40
2017-07-21T14:36:29.084Z,26.50
2017-07-21T14:38:56.516Z,26.40
2017-07-21T14:41:23.936Z,26.00
2017-07-21T14:43:51.364Z,25.90
2017-07-21T14:46:18.780Z,26.00
2017-07-21T14:48:46.206Z,26.60
2017-07-21T14:51:13.692Z,25.80
2017-07-21T14:53:41.253Z,25.60
2017-07-21T14:56:08.677Z,26.50
2017-07-21T14:58:36.125Z,28.30
2017-07-21T15:01:03.531Z,27.50
2017-07-21T15:03:30.953Z,26.70
2017-07-21T15:05:58.435Z,28.70
2017-07-21T15:08:25.859Z,29.40
2017-07-21T15:10:53.359Z,29.10
2017-07-21T15:13:20.782Z,27.40
2017-07-21T15:15:48.231Z,27.40
2017-07-21T15:18:15.721Z,27.30
2017-07-21T15:20:43.173Z,27.60
2017-07-21T15:23:10.610Z,27.80
2017-07-21T15:25:38.014Z,28.00
2017-07-21T15:28:05.444Z,27.00
2017-07-21T15:30:32.856Z,29.40
2017-07-21T15:33:00.277Z,28.90
2017-07-21T15:35:27.705Z,29.30
2017-07-21T15:37:55.147Z,28.30
2017-07-21T15:40:22.572Z,29.80
2017-07-21T15:42:50.756Z,30.40
2017-07-21T15:45:18.196Z,30.40
2017-07-21T15:47:46.420Z,35.20
2017-07-21T15:50:13.820Z,34.80
2017-07-21T15:52:42.010Z,36.40
2017-07-21T15:55:10.213Z,38.10
2017-07-21T15:57:37.641Z,38.00
2017-07-21T16:00:05.821Z,41.10
2017-07-21T16:02:33.239Z,41.00
2017-07-21T16:05:00.759Z,40.80
2017-07-21T16:07:28.191Z,41.60
2017-07-21T16:09:55.611Z,42.20
2017-07-21T16:12:23.047Z,42.90
2017-07-21T16:14:50.487Z,43.20
2017-07-21T16:17:17.925Z,42.50
2017-07-21T16:19:45.408Z,43.40
2017-07-21T16:22:12.829Z,43.40
2017-07-21T16:24:40.335Z,43.30
2017-07-21T16:27:07.744Z,43.00
2017-07-21T16:29:35.276Z,41.90
2017-07-21T16:32:03.456Z,43.40
2017-07-21T16:34:31.652Z,43.70
2017-07-21T16:36:59.102Z,43.60
2017-07-21T16:39:26.576Z,44.40
2017-07-21T16:41:53.992Z,47.00
2017-07-21T16:44:21.400Z,48.60
2017-07-21T16:46:48.824Z,49.50
2017-07-21T16:49:16.248Z,49.00
2017-07-21T16:51:44.357Z,49.40
2017-07-21T16:54:12.365Z,49.60
2017-07-21T16:56:39.952Z,49.70
2017-07-21T16:59:07.364Z,50.20
2017-07-21T17:01:35.556Z,50.60
2017-07-21T17:04:02.978Z,50.00
2017-07-21T17:06:30.501Z,50.10
2017-07-21T17:08:57.958Z,50.20
2017-07-21T17:11:25.417Z,50.30
2017-07-21T17:13:52.836Z,50.30
2017-07-21T17:16:20.286Z,49.80
2017-07-21T17:18:48.460Z,49.60
2017-07-21T17:21:15.880Z,49.50
2017-07-21T17:23:43.321Z,48.90
2017-07-21T17:26:10.736Z,48.80
2017-07-21T17:28:38.175Z,48.90
2017-07-21T17:31:06.365Z,48.60
2017-07-21T17:33:33.824Z,48.60
2017-07-21T17:36:01.280Z,48.90
2017-07-21T17:38:28.710Z,49.40
2017-07-21T17:40:56.913Z,49.30
2017-07-21T17:43:24.334Z,49.30
2017-07-21T17:45:52.544Z,49.70
2017-07-21T17:48:19.980Z,49.70
2017-07-21T17:50:48.351Z,49.50
2017-07-21T17:53:16.537Z,49.50
2017-07-21T17:55:43.963Z,49.40
2017-07-21T17:58:11.388Z,49.60
2017-07-21T18:00:38.844Z,49.70
2017-07-21T18:03:06.265Z,50.00
2017-07-21T18:05:33.750Z,50.10
2017-07-21T18:08:01.207Z,50.30
2017-07-21T18:10:28.648Z,49.80
2017-07-21T18:12:56.242Z,49.20
2017-07-21T18:15:23.669Z,49.50
2017-07-21T18:17:51.117Z,49.80
2017-07-21T18:20:18.540Z,50.10
2017-07-21T18:22:46.737Z,50.80
2017-07-21T18:25:14.165Z,50.70
2017-07-21T18:27:42.371Z,51.00
2017-07-21T18:30:09.794Z,50.90
2017-07-21T18:32:38.024Z,51.70
2017-07-21T18:35:05.448Z,51.70
2017-07-21T18:37:32.870Z,51.90
2017-07-21T18:40:00.294Z,52.00
2017-07-21T18:42:27.718Z,52.40
2017-07-21T18:44:55.124Z,52.50
2017-07-21T18:47:22.548Z,52.70
2017-07-21T18:49:49.980Z,53.00
2017-07-21T18:52:17.404Z,53.30
2017-07-21T18:54:45.814Z,53.80
2017-07-21T18:57:13.252Z,53.80
2017-07-21T18:59:41.444Z,53.80
2017-07-21T19:02:08.864Z,53.80
2017-07-21T19:04:37.057Z,54.30
2017-07-21T19:07:04.484Z,54.10
2017-07-21T19:09:31.901Z,54.60
2017-07-21T19:11:59.371Z,54.60
2017-07-21T19:14:26.816Z,54.90
2017-07-21T19:16:54.235Z,55.00
2017-07-21T19:19:21.657Z,55.20
2017-07-21T19:21:49.080Z,55.50
2017-07-21T19:24:16.520Z,56.20
2017-07-21T19:26:43.944Z,55.90
2017-07-21T19:29:12.136Z,56.20
2017-07-21T19:31:39.627Z,56.20
2017-07-21T19:34:07.059Z,56.40
2017-07-21T19:36:34.464Z,56.70
2017-07-21T19:39:01.884Z,56.70
2017-07-21T19:41:29.304Z,56.90
2017-07-21T19:43:57.493Z,57.50
2017-07-21T19:46:24.924Z,57.40
2017-07-21T19:48:53.131Z,57.90
2017-07-21T19:51:20.539Z,57.90
2017-07-21T19:53:47.956Z,58.00
2017-07-21T19:56:15.381Z,58.20
2017-07-21T19:58:42.825Z,58.40
2017-07-21T20:01:11.049Z,58.90
2017-07-21T20:03:38.472Z,58.90
2017-07-21T20:06:05.909Z,58.90
2017-07-21T20:08:34.104Z,59.20
2017-07-21T20:11:01.560Z,59.10
2017-07-21T20:13:29.736Z,59.30
2017-07-21T20:15:57.160Z,59.30
2017-07-21T20:18:25.384Z,59.50
2017-07-21T20:20:52.821Z,59.50
2017-07-21T20:23:20.259Z,59.60
2017-07-21T20:25:48.464Z,59.70
2017-07-21T20:28:15.896Z,59.70
2017-07-21T20:30:43.411Z,59.80
2017-07-21T20:33:10.841Z,60.00
2017-07-21T20:35:38.281Z,59.80
2017-07-21T20:38:05.717Z,59.80
2017-07-21T20:40:33.926Z,60.00
2017-07-21T20:43:01.350Z,59.90
2017-07-21T20:45:28.809Z,59.90
2017-07-21T20:47:56.241Z,59.70
2017-07-21T20:50:24.436Z,59.80
2017-07-21T20:52:51.932Z,59.80
2017-07-21T20:55:19.384Z,59.80
2017-07-21T20:57:46.789Z,59.80
2017-07-21T21:00:15.062Z,59.90
2017-07-21T21:02:43.250Z,60.30
2017-07-21T21:05:11.465Z,60.10
2017-07-21T21:07:38.975Z,60.10
2017-07-21T21:10:07.257Z,61.00
2017-07-21T21:12:35.770Z,60.80
2017-07-21T21:15:03.533Z,60.70
2017-07-21T21:17:31.060Z,60.90
2017-07-21T21:19:58.590Z,61.00
2017-07-21T21:22:26.137Z,61.20
2017-07-21T21:24:53.578Z,61.00
2017-07-21T21:27:21.138Z,61.30
2017-07-21T21:29:48.718Z,61.60
2017-07-21T21:32:16.165Z,61.90
2017-07-21T21:34:43.731Z,62.40
2017-07-21T21:37:11.160Z,62.30
2017-07-21T21:39:38.663Z,62.50
2017-07-21T21:42:06.079Z,62.50
2017-07-21T21:44:33.517Z,62.60
2017-07-21T21:47:01.192Z,62.70
2017-07-21T21:49:28.632Z,62.70
2017-07-21T21:51:56.457Z,63.10
2017-07-21T21:54:24.169Z,63.30
2017-07-21T21:56:51.601Z,63.30
2017-07-21T21:59:19.026Z,63.50
2017-07-21T22:01:47.237Z,64.10
2017-07-21T22:04:14.672Z,63.40
2017-07-21T22:06:42.229Z,63.40
2017-07-21T22:09:10.413Z,63.80
2017-07-21T22:11:37.859Z,63.80
2017-07-21T22:14:06.041Z,63.90
2017-07-21T22:16:33.478Z,63.80
2017-07-21T22:19:00.998Z,64.10
2017-07-21T22:21:28.441Z,64.10
2017-07-21T22:23:55.869Z,64.20
2017-07-21T22:26:23.306Z,64.40
2017-07-21T22:29:06.447Z,64.80
2017-07-21T22:31:34.405Z,64.80
2017-07-21T22:34:02.600Z,65.10
2017-07-21T22:36:30.028Z,65.10
2017-07-21T22:38:58.209Z,65.60
2017-07-21T22:41:26.401Z,65.80
2017-07-21T22:43:53.821Z,65.70
2017-07-21T22:46:22.017Z,66.40
2017-07-21T22:48:49.450Z,66.40
2017-07-21T22:51:16.864Z,66.70
2017-07-21T22:53:44.287Z,66.70
2017-07-21T22:56:11.707Z,66.90
2017-07-21T22:58:39.141Z,67.20
2017-07-21T23:01:06.545Z,67.50
2017-07-21T23:03:34.732Z,67.60
2017-07-21T23:06:02.140Z,67.50
2017-07-21T23:08:29.565Z,67.50
2017-07-21T23:10:56.996Z,67.70
2017-07-21T23:13:25.088Z,67.70
2017-07-21T23:15:52.500Z,67.70
2017-07-21T23:18:20.684Z,67.80
2017-07-21T23:20:48.872Z,68.00
2017-07-21T23:25:54.453Z,67.90
2017-07-21T23:28:21.864Z,67.80
2017-07-21T23:30:49.292Z,67.90
2017-07-21T23:33:16.710Z,67.90
2017-07-21T23:35:44.124Z,68.40
2017-07-21T23:38:12.311Z,68.50
2017-07-21T23:40:39.746Z,68.50
2017-07-21T23:43:07.191Z,68.30
2017-07-21T23:45:34.606Z,68.30
2017-07-21T23:48:02.037Z,68.00
2017-07-21T23:50:30.217Z,68.40
2017-07-21T23:52:57.649Z,68.50
2017-07-21T23:55:25.070Z,68.20
2017-07-21T23:57:52.492Z,68.40
